Time;durP1;ratioP1;P1;durP2;ratioP2;P2;SDS_P1;SDS_P2;PMS_P1;PMS_P2;Temp;Humidity;BMP_temperature;BMP_pressure;BME280_temperature;BME280_humidity;BME280_pressure;Samples;Min_cycle;Max_cycle;Signal;HPM_P1;HPM_P2
2023/08/26 00:00:31;;;;;;;1.83;1.73;;;21.20;99.90;;;;;;5055490;28;20197;-56
2023/08/26 00:02:57;;;;;;;2.47;2.07;;;21.30;99.90;;;;;;5073419;28;20202;-57
2023/08/26 00:05:23;;;;;;;3.30;2.10;;;21.40;99.90;;;;;;5073616;28;20216;-56
2023/08/26 00:07:48;;;;;;;2.43;2.23;;;21.40;99.90;;;;;;5073730;28;20228;-58
2023/08/26 00:10:14;;;;;;;5.60;2.43;;;21.50;99.90;;;;;;5075512;28;20212;-65
2023/08/26 00:12:39;;;;;;;2.30;2.20;;;21.50;99.90;;;;;;5070926;28;20747;-58
2023/08/26 00:15:05;;;;;;;3.00;2.00;;;21.60;99.90;;;;;;5073490;28;20306;-55
2023/08/26 00:17:35;;;;;;;4.38;2.22;;;21.50;99.90;;;;;;5068813;28;20432;-54
2023/08/26 00:20:00;;;;;;;2.20;2.00;;;21.60;99.90;;;;;;5071525;28;20222;-55
2023/08/26 00:22:26;;;;;;;2.63;1.88;;;21.60;99.90;;;;;;5073218;28;20209;-55
2023/08/26 00:24:51;;;;;;;2.03;1.83;;;21.60;99.90;;;;;;5051434;28;20194;-56
2023/08/26 00:27:17;;;;;;;2.60;2.13;;;21.50;99.90;;;;;;5075454;28;20671;-55
2023/08/26 00:29:42;;;;;;;2.27;2.10;;;21.60;99.90;;;;;;5073169;28;20196;-55
2023/08/26 00:32:08;;;;;;;1.93;1.83;;;21.60;99.90;;;;;;5073300;28;20201;-55
2023/08/26 00:34:34;;;;;;;1.93;1.83;;;21.60;99.90;;;;;;5073472;28;20572;-56
2023/08/26 00:36:59;;;;;;;1.90;1.80;;;21.60;99.90;;;;;;5073214;28;20217;-55
2023/08/26 00:39:25;;;;;;;2.47;2.13;;;21.60;99.90;;;;;;5073130;28;20270;-55
2023/08/26 00:41:51;;;;;;;3.27;2.27;;;21.70;99.90;;;;;;5051870;28;20194;-56
2023/08/26 00:44:16;;;;;;;1.97;1.87;;;21.70;99.90;;;;;;5069498;28;20208;-55
2023/08/26 00:46:42;;;;;;;2.00;1.80;;;21.70;99.90;;;;;;5072293;28;20205;-56
2023/08/26 00:49:08;;;;;;;2.80;2.37;;;21.80;99.90;;;;;;5072858;28;20193;-58
2023/08/26 00:51:33;;;;;;;2.97;2.00;;;21.80;99.90;;;;;;5072264;28;20309;-55
2023/08/26 00:53:59;;;;;;;2.63;2.07;;;21.80;99.90;;;;;;5069779;28;20308;-55
2023/08/26 00:56:25;;;;;;;3.27;2.47;;;21.80;99.90;;;;;;5070267;28;20221;-56
2023/08/26 00:58:51;;;;;;;2.83;2.30;;;21.80;99.90;;;;;;5072205;28;20197;-56
2023/08/26 01:01:18;;;;;;;2.10;2.00;;;21.80;99.90;;;;;;5072981;28;20198;-56
2023/08/26 01:03:44;;;;;;;2.53;2.30;;;21.80;99.90;;;;;;5075197;28;20236;-56
2023/08/26 01:06:10;;;;;;;2.50;2.30;;;21.70;99.90;;;;;;5075823;28;20444;-56
2023/08/26 01:08:36;;;;;;;5.07;2.53;;;21.70;99.90;;;;;;5077038;28;20735;-56
2023/08/26 01:11:18;;;;;;;2.70;2.27;;;21.70;99.90;;;;;;5076875;28;20259;-56
2023/08/26 01:14:06;;;;;;;2.43;2.23;;;21.70;99.90;;;;;;5057818;28;20205;-56
2023/08/26 01:16:34;;;;;;;2.23;2.03;;;21.70;99.90;;;;;;5074156;28;20217;-56
2023/08/26 01:19:01;;;;;;;4.40;2.20;;;21.60;99.90;;;;;;5076466;28;20322;-56
2023/08/26 01:21:35;;;;;;;2.47;2.27;;;21.60;99.90;;;;;;5072680;28;20224;-56
2023/08/26 01:24:00;;;;;;;2.87;2.37;;;21.60;99.90;;;;;;5057938;28;20703;-56
2023/08/26 01:26:26;;;;;;;3.10;2.67;;;21.60;99.90;;;;;;5076827;28;20193;-56
2023/08/26 01:28:51;;;;;;;1.95;1.83;;;21.60;99.90;;;;;;5078272;28;20209;-55
2023/08/26 01:31:20;;;;;;;3.80;2.63;;;21.60;99.90;;;;;;5076533;28;20303;-55
2023/08/26 01:34:03;;;;;;;5.27;2.07;;;21.60;99.90;;;;;;5076468;28;20893;-55
2023/08/26 01:36:33;;;;;;;4.40;2.70;;;21.60;99.90;;;;;;5088389;28;20228;-56
2023/08/26 01:38:59;;;;;;;4.53;2.80;;;21.50;99.90;;;;;;5057818;28;20197;-56
2023/08/26 01:41:26;;;;;;;5.30;2.30;;;21.50;99.90;;;;;;5077884;28;20848;-56
2023/08/26 01:43:53;;;;;;;2.33;2.07;;;21.40;99.90;;;;;;5054817;28;20528;-56
2023/08/26 01:46:18;;;;;;;2.13;1.93;;;21.40;99.90;;;;;;5057866;28;20198;-55
2023/08/26 01:48:44;;;;;;;2.97;2.60;;;21.40;99.90;;;;;;5076228;28;20533;-57
2023/08/26 01:51:11;;;;;;;3.00;2.10;;;21.30;99.90;;;;;;5075386;28;20312;-55
2023/08/26 01:53:37;;;;;;;2.03;1.83;;;21.30;99.90;;;;;;5076054;28;20232;-56
2023/08/26 01:56:03;;;;;;;2.57;2.37;;;21.30;99.90;;;;;;5058015;28;20981;-56
2023/08/26 01:58:28;;;;;;;4.67;2.40;;;21.30;99.90;;;;;;5077903;28;20208;-56
2023/08/26 02:00:54;;;;;;;2.80;2.33;;;21.30;99.90;;;;;;5057463;28;20564;-55
2023/08/26 02:03:19;;;;;;;2.83;2.43;;;21.20;99.90;;;;;;5074149;28;20625;-56
2023/08/26 02:05:44;;;;;;;2.00;1.90;;;21.30;99.90;;;;;;5071337;28;20209;-55
2023/08/26 02:08:10;;;;;;;3.40;3.10;;;21.20;99.90;;;;;;5073928;28;20435;-55
2023/08/26 02:10:36;;;;;;;3.83;2.57;;;21.20;99.90;;;;;;5076077;28;20215;-55
2023/08/26 02:13:01;;;;;;;2.07;1.93;;;21.10;99.90;;;;;;5077003;28;20261;-54
2023/08/26 02:15:27;;;;;;;2.00;1.33;;;21.10;99.90;;;;;;5055921;28;20213;-55
2023/08/26 02:17:52;;;;;;;4.43;1.97;;;21.10;99.90;;;;;;5075344;28;20201;-54
2023/08/26 02:20:18;;;;;;;2.70;2.40;;;21.10;99.90;;;;;;5057530;28;20327;-54
2023/08/26 02:22:43;;;;;;;5.70;3.00;;;21.10;99.90;;;;;;5075372;28;20312;-54
2023/08/26 02:25:09;;;;;;;3.73;2.37;;;21.10;99.90;;;;;;5078268;28;20201;-57
2023/08/26 02:27:35;;;;;;;3.70;2.13;;;21.00;99.90;;;;;;5059275;28;20189;-54
2023/08/26 02:30:01;;;;;;;2.40;2.20;;;21.00;99.90;;;;;;5072967;28;20951;-54
2023/08/26 02:32:26;;;;;;;6.07;2.50;;;21.10;99.90;;;;;;5058198;28;20198;-54
2023/08/26 02:34:52;;;;;;;3.00;2.40;;;21.10;99.90;;;;;;5057825;28;20652;-54
2023/08/26 02:37:17;;;;;;;2.40;2.20;;;21.10;99.90;;;;;;5075477;28;20232;-54
2023/08/26 02:39:43;;;;;;;2.70;2.50;;;21.10;99.90;;;;;;5075147;28;20271;-54
2023/08/26 02:42:08;;;;;;;3.67;2.23;;;21.10;99.90;;;;;;5074556;28;20657;-54
2023/08/26 02:44:34;;;;;;;3.97;2.27;;;21.10;99.90;;;;;;5075856;28;20205;-54
2023/08/26 02:47:00;;;;;;;2.40;2.20;;;21.10;99.90;;;;;;5076459;28;20235;-55
2023/08/26 02:49:26;;;;;;;7.10;2.90;;;21.00;99.90;;;;;;5074426;28;20249;-54
2023/08/26 02:51:52;;;;;;;3.47;2.23;;;21.10;99.90;;;;;;5074561;28;20213;-54
2023/08/26 02:54:17;;;;;;;6.90;2.90;;;21.10;99.90;;;;;;5056661;28;20200;-54
2023/08/26 02:56:43;;;;;;;3.20;2.87;;;21.10;99.90;;;;;;5074581;28;20246;-54
2023/08/26 02:59:08;;;;;;;4.50;2.17;;;21.00;99.90;;;;;;5076210;28;20619;-54
2023/08/26 03:01:36;;;;;;;3.13;2.80;;;20.90;99.90;;;;;;5074638;28;20205;-54
2023/08/26 03:04:03;;;;;;;2.27;2.17;;;20.90;99.90;;;;;;5074292;28;20236;-54
2023/08/26 03:06:30;;;;;;;3.43;2.50;;;20.90;99.90;;;;;;5055841;28;20971;-54
2023/08/26 03:08:55;;;;;;;6.37;2.33;;;20.90;99.90;;;;;;5074056;28;20904;-54
2023/08/26 03:11:22;;;;;;;3.67;2.27;;;20.90;99.90;;;;;;5074406;28;20222;-56
2023/08/26 03:13:49;;;;;;;3.47;2.47;;;21.00;99.90;;;;;;5074544;28;20208;-55
2023/08/26 03:16:15;;;;;;;2.50;2.30;;;21.00;99.90;;;;;;5076084;28;20228;-54
2023/08/26 03:18:40;;;;;;;5.10;2.50;;;21.00;99.90;;;;;;5075599;28;20189;-54
2023/08/26 03:21:07;;;;;;;4.83;2.80;;;21.10;99.90;;;;;;5074119;28;20682;-55
2023/08/26 03:23:34;;;;;;;2.93;2.50;;;21.00;99.90;;;;;;5074155;28;20663;-54
2023/08/26 03:26:00;;;;;;;3.57;2.77;;;21.10;99.90;;;;;;5073453;28;20197;-55
2023/08/26 03:28:25;;;;;;;4.30;2.67;;;20.90;99.90;;;;;;5055864;28;20255;-55
2023/08/26 03:30:51;;;;;;;6.20;4.37;;;21.00;99.90;;;;;;5073960;28;20246;-55
2023/08/26 03:33:16;;;;;;;3.03;2.77;;;20.90;99.90;;;;;;5076086;28;20213;-55
2023/08/26 03:35:42;;;;;;;3.47;3.17;;;20.80;99.90;;;;;;5073616;28;20292;-55
2023/08/26 03:38:08;;;;;;;2.30;2.10;;;20.90;99.90;;;;;;5074089;28;20200;-55
2023/08/26 03:40:33;;;;;;;4.10;3.43;;;20.90;99.90;;;;;;5074362;28;20352;-55
2023/08/26 03:43:01;;;;;;;3.17;2.87;;;20.80;99.90;;;;;;5055305;28;20642;-55
2023/08/26 03:45:29;;;;;;;4.20;2.67;;;20.90;99.90;;;;;;5071883;28;20195;-63
2023/08/26 03:47:55;;;;;;;2.90;2.70;;;20.90;99.90;;;;;;5075429;28;20195;-58
2023/08/26 03:50:21;;;;;;;7.77;3.33;;;20.80;99.90;;;;;;5065364;28;20262;-57
2023/08/26 03:52:46;;;;;;;2.87;2.30;;;20.90;99.90;;;;;;5071906;28;20203;-56
2023/08/26 03:55:12;;;;;;;4.97;3.33;;;20.90;99.90;;;;;;5071021;28;20412;-55
2023/08/26 03:57:38;;;;;;;4.30;2.67;;;20.90;99.90;;;;;;5062488;28;20233;-55
2023/08/26 04:00:04;;;;;;;2.80;2.60;;;20.90;99.90;;;;;;5068121;28;20205;-57
2023/08/26 04:02:29;;;;;;;3.07;2.73;;;20.90;99.90;;;;;;5081124;28;20240;-55
2023/08/26 04:04:55;;;;;;;3.80;2.83;;;20.90;99.90;;;;;;5083618;28;20808;-55
2023/08/26 04:07:20;;;;;;;5.27;3.30;;;20.90;99.90;;;;;;5084438;28;20205;-55
2023/08/26 04:09:46;;;;;;;4.30;3.07;;;20.90;99.90;;;;;;5083704;28;20188;-56
2023/08/26 04:12:11;;;;;;;3.37;3.07;;;20.90;99.90;;;;;;5083304;28;20201;-55
2023/08/26 04:14:37;;;;;;;4.50;3.03;;;20.80;99.90;;;;;;5083444;28;20797;-55
2023/08/26 04:17:03;;;;;;;3.33;3.03;;;20.80;99.90;;;;;;5083153;28;20252;-55
2023/08/26 04:19:30;;;;;;;4.67;3.37;;;20.70;99.90;;;;;;5083057;28;20268;-55
2023/08/26 04:21:57;;;;;;;3.77;3.20;;;20.70;99.90;;;;;;5073802;28;20296;-55
2023/08/26 04:24:22;;;;;;;11.37;3.47;;;20.70;99.90;;;;;;5081392;28;20248;-55
2023/08/26 04:26:48;;;;;;;4.70;3.70;;;20.60;99.90;;;;;;5060308;28;20292;-55
2023/08/26 04:29:13;;;;;;;7.03;3.70;;;20.60;99.90;;;;;;5083395;28;20930;-55
2023/08/26 04:31:39;;;;;;;5.90;3.20;;;20.70;99.90;;;;;;5080738;28;20188;-55
2023/08/26 04:34:05;;;;;;;3.40;3.10;;;20.60;99.90;;;;;;5065030;28;20229;-55
2023/08/26 04:36:30;;;;;;;4.03;3.50;;;20.50;99.90;;;;;;5082101;28;20249;-55
2023/08/26 04:38:57;;;;;;;5.07;3.20;;;20.50;99.90;;;;;;5082164;28;20232;-55
2023/08/26 04:41:23;;;;;;;5.20;4.40;;;20.50;99.90;;;;;;5082474;28;20196;-55
2023/08/26 04:43:52;;;;;;;5.43;3.87;;;20.60;99.90;;;;;;5063243;28;20452;-55
2023/08/26 04:46:18;;;;;;;5.30;3.33;;;20.60;99.90;;;;;;5071585;28;20202;-54
2023/08/26 04:48:44;;;;;;;4.80;3.90;;;20.60;99.90;;;;;;5080270;28;20235;-54
2023/08/26 04:51:10;;;;;;;6.40;3.53;;;20.70;99.90;;;;;;5074675;28;20221;-56
2023/08/26 04:53:35;;;;;;;5.67;3.70;;;20.70;99.90;;;;;;5064825;28;20257;-56
2023/08/26 04:56:01;;;;;;;5.03;3.63;;;20.70;99.90;;;;;;5062243;28;20217;-56
2023/08/26 04:58:26;;;;;;;3.80;3.30;;;20.60;99.90;;;;;;5056498;28;20582;-53
2023/08/26 05:00:52;;;;;;;4.43;3.03;;;20.60;99.90;;;;;;5064355;28;20216;-54
2023/08/26 05:03:19;;;;;;;3.20;3.00;;;20.50;99.90;;;;;;5077080;28;20186;-54
2023/08/26 05:05:44;;;;;;;6.07;3.43;;;20.50;99.90;;;;;;5082247;28;20196;-54
2023/08/26 05:08:10;;;;;;;4.90;3.80;;;20.60;99.90;;;;;;5082905;28;20190;-54
2023/08/26 05:10:36;;;;;;;3.53;3.23;;;20.60;99.90;;;;;;5052337;28;20252;-55
2023/08/26 05:13:02;;;;;;;4.70;3.73;;;20.60;99.90;;;;;;5083120;28;20173;-55
2023/08/26 05:15:28;;;;;;;5.67;3.73;;;20.50;99.90;;;;;;5082781;28;20214;-55
2023/08/26 05:17:54;;;;;;;5.73;3.47;;;20.50;99.90;;;;;;5082700;28;20189;-55
2023/08/26 05:20:20;;;;;;;5.80;3.63;;;20.50;99.90;;;;;;5081877;28;21155;-56
2023/08/26 05:22:45;;;;;;;5.77;3.93;;;20.60;99.90;;;;;;5049609;28;20745;-56
2023/08/26 05:25:11;;;;;;;6.27;4.03;;;20.60;99.90;;;;;;5069709;28;20276;-55
2023/08/26 05:27:36;;;;;;;4.33;3.93;;;20.70;99.90;;;;;;5079665;28;20208;-55
2023/08/26 05:30:02;;;;;;;6.57;4.13;;;20.70;99.90;;;;;;5082331;28;20496;-55
2023/08/26 05:32:27;;;;;;;3.87;3.00;;;20.70;99.90;;;;;;5082432;28;20248;-55
2023/08/26 05:34:53;;;;;;;5.57;4.40;;;20.50;99.90;;;;;;5079527;28;20627;-55
2023/08/26 05:37:18;;;;;;;5.67;4.63;;;20.60;99.90;;;;;;5080792;28;20217;-54
2023/08/26 05:39:44;;;;;;;4.77;3.80;;;20.60;99.90;;;;;;5082621;28;20185;-54
2023/08/26 05:42:09;;;;;;;4.27;3.90;;;20.60;99.90;;;;;;5082052;28;20209;-54
2023/08/26 05:44:35;;;;;;;5.37;3.97;;;20.50;99.90;;;;;;5062637;28;20268;-55
2023/08/26 05:47:00;;;;;;;4.33;4.03;;;20.50;99.90;;;;;;5076123;28;21002;-55
2023/08/26 05:49:26;;;;;;;4.73;4.00;;;20.50;99.90;;;;;;5066162;28;20216;-55
2023/08/26 05:51:51;;;;;;;5.00;4.53;;;20.40;99.90;;;;;;5080011;28;20682;-55
2023/08/26 05:54:17;;;;;;;4.47;4.17;;;20.50;99.90;;;;;;5085891;28;20284;-55
2023/08/26 05:56:42;;;;;;;6.07;4.53;;;20.50;99.90;;;;;;5065440;28;20339;-55
2023/08/26 05:59:07;;;;;;;5.13;4.33;;;20.60;99.90;;;;;;5085694;28;20212;-55
2023/08/26 06:01:33;;;;;;;4.37;3.97;;;20.60;99.90;;;;;;5085573;28;20213;-55
2023/08/26 06:04:00;;;;;;;6.20;5.30;;;20.70;99.90;;;;;;5085716;28;20242;-55
2023/08/26 06:06:25;;;;;;;5.80;4.90;;;20.70;99.90;;;;;;5078184;28;21018;-55
2023/08/26 06:08:50;;;;;;;5.37;4.90;;;20.70;99.90;;;;;;5081839;28;20173;-55
2023/08/26 06:11:16;;;;;;;5.53;5.03;;;20.80;99.90;;;;;;5085126;28;20208;-55
2023/08/26 06:13:41;;;;;;;4.97;4.57;;;20.80;99.90;;;;;;5085532;28;20716;-55
2023/08/26 06:16:07;;;;;;;5.37;4.80;;;20.90;99.90;;;;;;5075072;28;20224;-55
2023/08/26 06:18:34;;;;;;;4.77;4.30;;;20.90;99.90;;;;;;5067384;28;20258;-55
2023/08/26 06:21:08;;;;;;;5.30;4.80;;;20.90;99.90;;;;;;5082458;28;20249;-55
2023/08/26 06:23:33;;;;;;;9.13;5.00;;;20.90;99.90;;;;;;5065545;28;20263;-55
2023/08/26 06:25:59;;;;;;;6.37;4.90;;;20.90;99.90;;;;;;5083119;28;20283;-55
2023/08/26 06:28:25;;;;;;;6.33;4.10;;;20.90;99.90;;;;;;5085275;28;20184;-55
2023/08/26 06:30:56;;;;;;;6.93;4.87;;;20.90;99.90;;;;;;5066532;28;20201;-55
2023/08/26 06:33:21;;;;;;;8.20;5.80;;;20.90;99.90;;;;;;5085221;28;20184;-55
2023/08/26 06:35:49;;;;;;;5.77;5.17;;;21.00;99.90;;;;;;5082442;28;20229;-55
2023/08/26 06:38:15;;;;;;;5.20;4.37;;;21.00;99.90;;;;;;5085229;28;20181;-55
2023/08/26 06:40:41;;;;;;;4.90;4.50;;;20.90;99.90;;;;;;5084751;28;20197;-59
2023/08/26 06:43:07;;;;;;;5.30;4.80;;;20.90;99.90;;;;;;5063702;28;20261;-55
2023/08/26 06:45:33;;;;;;;6.77;5.40;;;21.00;99.90;;;;;;5060993;28;20284;-55
2023/08/26 06:47:58;;;;;;;6.40;5.20;;;21.10;99.90;;;;;;5085137;28;20177;-55
2023/08/26 06:50:24;;;;;;;6.30;5.70;;;21.20;99.90;;;;;;5081257;28;20212;-56
2023/08/26 06:52:49;;;;;;;6.30;4.97;;;21.20;99.90;;;;;;5076606;28;20275;-55
2023/08/26 06:55:17;;;;;;;6.00;5.40;;;21.20;99.90;;;;;;5084791;28;20340;-55
2023/08/26 06:57:43;;;;;;;6.27;5.63;;;21.20;99.90;;;;;;5082897;28;20201;-55
2023/08/26 07:00:08;;;;;;;6.17;5.33;;;21.20;99.90;;;;;;5083644;28;20206;-55
2023/08/26 07:02:34;;;;;;;7.73;5.00;;;21.20;99.90;;;;;;5066393;28;20903;-55
2023/08/26 07:05:00;;;;;;;6.53;5.40;;;21.20;99.90;;;;;;5084209;28;20205;-55
2023/08/26 07:07:25;;;;;;;6.83;5.77;;;21.20;99.90;;;;;;5084278;28;20669;-55
2023/08/26 07:09:51;;;;;;;5.53;5.03;;;21.20;99.90;;;;;;5081126;28;20189;-56
2023/08/26 07:12:16;;;;;;;6.10;4.83;;;21.30;99.90;;;;;;5080703;28;20258;-56
2023/08/26 07:14:42;;;;;;;6.73;6.13;;;21.30;99.90;;;;;;5084686;28;20276;-59
2023/08/26 07:17:07;;;;;;;5.40;5.00;;;21.30;99.90;;;;;;5077862;28;20224;-56
2023/08/26 07:19:33;;;;;;;6.87;5.87;;;21.40;99.90;;;;;;5084080;28;20600;-59
2023/08/26 07:21:58;;;;;;;5.23;4.83;;;21.50;99.90;;;;;;5080595;28;20209;-62
2023/08/26 07:24:24;;;;;;;6.00;5.17;;;21.50;99.90;;;;;;5084103;28;20892;-60
2023/08/26 07:26:49;;;;;;;6.40;5.80;;;21.50;99.90;;;;;;5082751;28;20901;-59
2023/08/26 07:29:15;;;;;;;5.47;5.07;;;21.60;99.90;;;;;;5063138;28;20262;-64
2023/08/26 07:31:41;;;;;;;5.83;4.97;;;21.70;99.90;;;;;;5069461;28;20224;-64
2023/08/26 07:34:06;;;;;;;6.57;5.73;;;21.70;99.90;;;;;;5072229;28;20227;-64
2023/08/26 07:36:32;;;;;;;7.67;5.70;;;21.80;99.90;;;;;;5057918;28;20233;-62
2023/08/26 07:38:58;;;;;;;5.87;5.30;;;21.80;99.90;;;;;;5074098;28;20205;-62
2023/08/26 07:41:24;;;;;;;6.00;5.40;;;21.80;99.90;;;;;;5055306;28;20991;-79
2023/08/26 07:43:49;;;;;;;5.90;5.30;;;21.80;99.90;;;;;;5052312;28;20209;-62
2023/08/26 07:46:18;;;;;;;7.87;5.43;;;21.80;99.90;;;;;;5053097;28;20292;-62
2023/08/26 07:48:44;;;;;;;6.50;5.90;;;21.80;99.90;;;;;;5054881;28;20403;-60
2023/08/26 07:51:09;;;;;;;7.90;5.82;;;21.80;99.90;;;;;;5054418;28;20438;-65
2023/08/26 07:53:35;;;;;;;5.37;4.87;;;21.70;99.90;;;;;;5056850;28;20404;-63
2023/08/26 07:56:01;;;;;;;5.53;5.03;;;21.70;99.90;;;;;;5069722;28;20220;-62
2023/08/26 07:58:26;;;;;;;6.13;5.00;;;21.80;99.90;;;;;;5072303;28;20193;-63
2023/08/26 08:00:52;;;;;;;7.40;5.90;;;21.70;99.90;;;;;;5070808;28;20684;-66
2023/08/26 08:03:17;;;;;;;6.40;5.77;;;21.80;99.90;;;;;;5072586;28;20205;-59
2023/08/26 08:05:43;;;;;;;6.10;5.57;;;21.80;99.90;;;;;;5054248;28;20243;-67
2023/08/26 08:08:08;;;;;;;6.97;6.00;;;21.70;99.90;;;;;;5071619;28;20201;-57
2023/08/26 08:10:34;;;;;;;6.57;5.97;;;21.70;99.90;;;;;;5072283;28;20703;-62
2023/08/26 08:12:59;;;;;;;6.83;6.20;;;21.70;99.90;;;;;;5054430;28;20835;-62
2023/08/26 08:15:25;;;;;;;8.27;6.00;;;21.80;99.90;;;;;;5073033;28;20194;-61
2023/08/26 08:17:50;;;;;;;6.47;5.87;;;21.90;99.90;;;;;;5073132;28;20205;-61
2023/08/26 08:20:16;;;;;;;8.70;6.77;;;22.00;99.90;;;;;;5054127;28;20338;-62
2023/08/26 08:22:43;;;;;;;11.30;6.87;;;22.00;99.90;;;;;;5068176;28;20781;-68
2023/08/26 08:25:09;;;;;;;7.30;6.50;;;22.00;99.90;;;;;;5067593;28;20275;-66
2023/08/26 08:27:39;;;;;;;8.50;6.73;;;22.00;99.90;;;;;;5083650;28;20737;-62
2023/08/26 08:30:05;;;;;;;8.83;6.97;;;22.00;99.90;;;;;;5069790;28;20197;-62
2023/08/26 08:32:33;;;;;;;7.40;6.70;;;22.00;99.90;;;;;;5072450;28;20242;-62
2023/08/26 08:34:58;;;;;;;8.30;6.47;;;22.00;99.90;;;;;;5072836;28;20203;-62
2023/08/26 08:37:24;;;;;;;9.10;7.07;;;22.10;99.90;;;;;;5053970;28;20746;-62
2023/08/26 08:39:49;;;;;;;7.77;6.23;;;22.10;99.90;;;;;;5070290;28;20270;-63
2023/08/26 08:42:16;;;;;;;6.83;6.23;;;22.10;99.90;;;;;;5069086;28;20212;-57
2023/08/26 08:44:43;;;;;;;6.77;6.17;;;22.20;99.90;;;;;;5067758;28;20778;-58
2023/08/26 08:47:09;;;;;;;7.80;7.07;;;22.20;99.90;;;;;;5050731;28;20340;-57
2023/08/26 08:49:37;;;;;;;7.97;6.17;;;22.20;99.90;;;;;;5053723;28;20663;-59
2023/08/26 08:52:04;;;;;;;8.00;6.17;;;22.10;99.90;;;;;;5068885;28;20240;-56
2023/08/26 08:54:30;;;;;;;6.13;5.53;;;22.10;99.90;;;;;;5053574;28;20417;-62
2023/08/26 08:56:56;;;;;;;5.57;5.13;;;22.10;99.90;;;;;;5070939;28;20239;-61
2023/08/26 08:59:25;;;;;;;5.77;5.33;;;22.10;99.90;;;;;;5071014;28;20675;-61
2023/08/26 09:01:54;;;;;;;8.40;7.50;;;22.10;99.90;;;;;;5053488;28;20216;-61
2023/08/26 09:04:19;;;;;;;7.43;6.07;;;22.10;99.90;;;;;;5052802;28;20663;-64
2023/08/26 09:06:45;;;;;;;7.40;5.50;;;22.30;99.90;;;;;;5070943;28;20223;-59
2023/08/26 09:09:11;;;;;;;5.70;5.30;;;22.30;99.90;;;;;;5071812;28;20791;-58
2023/08/26 09:11:38;;;;;;;6.07;5.47;;;22.40;99.90;;;;;;5073130;28;20208;-61
2023/08/26 09:14:04;;;;;;;6.37;4.97;;;22.40;99.90;;;;;;5071769;28;20205;-61
2023/08/26 09:16:38;;;;;;;5.40;4.73;;;22.50;99.90;;;;;;5048677;28;20380;-61
2023/08/26 09:19:22;;;;;;;4.67;4.27;;;22.60;99.90;;;;;;5071144;28;20213;-61
2023/08/26 09:21:48;;;;;;;6.75;5.88;;;22.60;99.90;;;;;;5066132;28;20432;-65
2023/08/26 09:24:17;;;;;;;6.00;5.00;;;22.40;99.90;;;;;;5070575;28;20226;-58
2023/08/26 09:26:58;;;;;;;6.37;5.87;;;22.30;99.90;;;;;;5054505;28;20201;-66
2023/08/26 09:29:25;;;;;;;7.63;6.07;;;22.50;99.90;;;;;;5048939;28;20304;-66
2023/08/26 09:31:55;;;;;;;10.05;7.15;;;22.40;99.90;;;;;;5070579;28;20420;-62
2023/08/26 09:34:30;;;;;;;7.10;6.47;;;22.50;99.90;;;;;;5052547;28;20252;-64
2023/08/26 09:36:56;;;;;;;7.77;5.43;;;22.50;99.90;;;;;;5072431;28;20216;-58
2023/08/26 09:39:22;;;;;;;7.13;6.43;;;22.50;99.90;;;;;;5053656;28;20201;-60
2023/08/26 09:41:48;;;;;;;8.13;7.27;;;22.60;99.90;;;;;;5071085;28;20268;-61
2023/08/26 09:44:21;;;;;;;7.53;6.70;;;22.70;99.90;;;;;;5070846;28;20301;-61
2023/08/26 09:46:47;;;;;;;7.68;6.88;;;22.70;99.90;;;;;;5072143;28;20503;-70
2023/08/26 09:49:14;;;;;;;6.93;5.87;;;22.80;99.90;;;;;;5056957;28;20247;-58
2023/08/26 09:51:52;;;;;;;8.57;7.33;;;22.80;99.90;;;;;;5077264;28;20221;-58
2023/08/26 09:54:20;;;;;;;7.77;7.07;;;22.90;99.90;;;;;;5075052;28;20194;-64
2023/08/26 09:56:46;;;;;;;8.40;6.93;;;23.00;99.90;;;;;;5066298;28;20217;-61
2023/08/26 09:59:12;;;;;;;9.93;7.93;;;23.00;99.90;;;;;;5072335;28;20219;-61
2023/08/26 10:01:39;;;;;;;11.23;7.63;;;22.80;99.90;;;;;;5075481;28;20197;-61
2023/08/26 10:04:11;;;;;;;10.48;9.43;;;22.90;99.90;;;;;;5074611;28;20510;-61
2023/08/26 10:06:53;;;;;;;10.17;9.23;;;22.80;99.90;;;;;;5057872;28;20206;-63
2023/08/26 10:09:45;;;;;;;11.17;9.50;;;22.80;99.90;;;;;;5072046;28;20259;-64
2023/08/26 10:12:17;;;;;;;10.63;9.53;;;22.90;99.90;;;;;;5062071;28;20206;-64
2023/08/26 10:14:45;;;;;;;12.20;10.90;;;23.00;99.90;;;;;;5069894;28;20198;-65
2023/08/26 10:17:13;;;;;;;10.40;9.40;;;23.10;99.90;;;;;;5051842;28;20891;-66
2023/08/26 10:19:40;;;;;;;12.47;10.50;;;23.20;99.90;;;;;;5073567;28;20987;-65
2023/08/26 10:22:09;;;;;;;10.27;9.23;;;23.10;99.90;;;;;;5069882;28;20201;-65
2023/08/26 10:24:36;;;;;;;11.40;10.33;;;22.90;99.90;;;;;;5056099;28;20218;-64
2023/08/26 10:27:02;;;;;;;11.10;9.93;;;23.00;99.90;;;;;;5056267;28;20330;-64
2023/08/26 10:29:29;;;;;;;9.83;8.70;;;23.20;99.90;;;;;;5070589;28;20209;-64
2023/08/26 10:31:55;;;;;;;10.50;9.50;;;23.40;99.90;;;;;;5067883;28;20559;-64
2023/08/26 10:34:20;;;;;;;10.07;8.85;;;23.60;99.90;;;;;;5056920;28;21048;-64
2023/08/26 10:36:47;;;;;;;9.50;8.60;;;23.70;99.90;;;;;;5066664;28;20240;-65
2023/08/26 10:39:20;;;;;;;10.40;9.27;;;23.80;99.90;;;;;;5072257;28;20338;-65
2023/08/26 10:42:12;;;;;;;10.25;9.15;;;23.80;99.90;;;;;;5054876;28;20255;-65
2023/08/26 10:44:39;;;;;;;10.45;9.05;;;23.80;99.90;;;;;;5053891;28;20308;-64
2023/08/26 10:47:05;;;;;;;9.85;8.25;;;24.00;99.90;;;;;;5074716;28;20205;-64
2023/08/26 10:49:31;;;;;;;9.50;8.65;;;24.20;99.90;;;;;;5074243;28;20201;-63
2023/08/26 10:52:18;;;;;;;9.43;8.52;;;24.10;99.90;;;;;;5069931;28;20861;-62
2023/08/26 10:54:45;;;;;;;9.10;8.23;;;24.10;99.90;;;;;;5073608;28;20187;-66
2023/08/26 10:57:11;;;;;;;10.93;8.35;;;24.40;99.90;;;;;;5067968;28;20217;-63
2023/08/26 10:59:41;;;;;;;9.20;8.30;;;24.70;99.90;;;;;;5082858;28;20213;-63
2023/08/26 11:02:08;;;;;;;11.55;7.50;;;24.60;99.90;;;;;;5052805;28;20386;-64
2023/08/26 11:04:44;;;;;;;7.97;7.25;;;24.50;99.90;;;;;;5073155;28;20222;-63
2023/08/26 11:07:20;;;;;;;8.70;7.45;;;24.80;99.90;;;;;;5070323;28;20200;-63
2023/08/26 11:09:46;;;;;;;7.47;6.72;;;25.00;99.90;;;;;;5071935;28;20747;-62
2023/08/26 11:12:27;;;;;;;8.77;7.53;;;24.90;99.90;;;;;;5070176;28;20412;-64
2023/08/26 11:15:01;;;;;;;8.52;6.95;;;25.00;99.90;;;;;;5047211;28;20198;-66
2023/08/26 11:17:27;;;;;;;7.28;6.53;;;24.70;99.90;;;;;;5066512;28;20798;-65
2023/08/26 11:19:53;;;;;;;10.07;6.97;;;24.60;99.90;;;;;;5073280;28;20202;-65
2023/08/26 11:22:25;;;;;;;6.75;6.07;;;24.60;99.90;;;;;;5053243;28;20197;-66
2023/08/26 11:24:50;;;;;;;8.13;6.25;;;24.70;99.90;;;;;;5074859;28;20706;-72
2023/08/26 11:27:16;;;;;;;7.20;6.45;;;24.80;99.90;;;;;;5054538;28;20197;-66
2023/08/26 11:29:42;;;;;;;8.73;6.70;;;24.80;99.90;;;;;;5054161;28;20198;-66
2023/08/26 11:32:08;;;;;;;10.32;5.75;;;24.70;99.90;;;;;;5053471;28;20283;-65
2023/08/26 11:34:34;;;;;;;8.35;5.95;;;24.80;99.90;;;;;;5068951;28;20234;-66
2023/08/26 11:36:59;;;;;;;7.43;6.10;;;25.00;99.90;;;;;;5071769;28;20996;-67
2023/08/26 11:39:30;;;;;;;6.38;5.38;;;25.10;99.90;;;;;;5068160;22;20302;-67
2023/08/26 11:41:55;;;;;;;5.32;4.93;;;25.40;99.90;;;;;;5036900;28;20546;-67
2023/08/26 11:44:28;;;;;;;4.97;4.43;;;25.70;99.90;;;;;;5058026;28;20385;-65
2023/08/26 11:46:57;;;;;;;7.25;5.30;;;25.50;99.90;;;;;;5032322;28;20218;-66
2023/08/26 11:49:23;;;;;;;5.30;4.22;;;25.30;99.90;;;;;;5057801;28;20210;-66
2023/08/26 11:51:49;;;;;;;6.28;4.78;;;25.30;99.90;;;;;;5040251;28;20240;-67
2023/08/26 11:54:24;;;;;;;4.53;4.10;;;25.60;99.90;;;;;;5014647;28;20236;-66
2023/08/26 11:56:51;;;;;;;5.63;4.10;;;25.50;99.90;;;;;;5015411;28;20230;-66
2023/08/26 11:59:36;;;;;;;5.57;4.30;;;25.30;99.90;;;;;;5020510;28;20234;-66
2023/08/26 12:02:43;;;;;;;5.40;4.35;;;25.00;99.90;;;;;;5020075;28;20180;-66
2023/08/26 12:05:25;;;;;;;6.25;4.65;;;25.30;99.90;;;;;;5007943;28;20212;-66
2023/08/26 12:07:57;;;;;;;4.93;4.47;;;25.80;99.90;;;;;;5039415;28;20204;-67
2023/08/26 12:10:28;;;;;;;5.53;4.20;;;25.70;99.90;;;;;;5029692;28;20210;-68
2023/08/26 12:13:02;;;;;;;6.32;5.10;;;25.20;99.90;;;;;;5035441;28;20926;-65
2023/08/26 12:15:29;;;;;;;6.03;4.30;;;25.30;99.90;;;;;;5033742;28;20192;-66
2023/08/26 12:17:55;;;;;;;5.35;4.15;;;25.40;99.90;;;;;;5035487;28;20206;-65
2023/08/26 12:20:31;;;;;;;5.90;4.35;;;26.10;99.90;;;;;;5037704;28;20210;-65
2023/08/26 12:23:00;;;;;;;3.40;2.92;;;26.40;99.90;;;;;;5029595;28;20206;-67
2023/08/26 12:25:27;;;;;;;5.03;3.70;;;26.00;99.90;;;;;;5037453;28;21091;-66
2023/08/26 12:28:23;;;;;;;3.85;3.40;;;25.80;99.90;;;;;;5034799;28;20521;-65
2023/08/26 12:30:49;;;;;;;3.72;3.42;;;25.70;99.90;;;;;;5014979;28;20207;-65
2023/08/26 12:33:15;;;;;;;5.53;4.07;;;25.80;99.90;;;;;;5014988;28;20756;-65
2023/08/26 12:35:40;;;;;;;4.25;3.25;;;25.80;99.90;;;;;;5032339;28;20215;-65
2023/08/26 12:38:06;;;;;;;5.10;3.70;;;26.20;99.90;;;;;;5016546;28;20241;-65
2023/08/26 12:40:33;;;;;;;3.80;3.35;;;26.20;99.90;;;;;;5022237;28;20213;-65
2023/08/26 12:43:04;;;;;;;4.78;4.20;;;26.10;99.90;;;;;;5020617;28;20206;-66
2023/08/26 12:45:31;;;;;;;4.28;3.88;;;26.20;99.90;;;;;;5015948;28;20216;-65